Flight Track Log - Related Links

Times and Time Zones

All times are in EDT time to prevent confusion due to time zone crossing. See the ASQ5941 flight status page for this flight to view local times or setup timezone preferences in your user account.

Time Position Orientation Groundspeed Altitude Reporting Facility
EDT Latitude Longitude Course Direction KTS MPH feet Rate Location/Type
Fri 03:08:49 PM 42.0333 -87.8500 74° East 173 199 3,200  Level Chicago TRACON
Fri 03:10:26 PM 42.0750 -87.7486 61° Northeast 197 227 5,900 1,283 Climbing Chicago Center
Fri 03:11:28 PM 42.0828 -87.6500 84° East 256 295 6,600 1,403 Climbing Chicago Center
Fri 03:12:00 PM 41.9795 -87.1565 90° East  Level Estimated
Fri 03:12:30 PM 42.0817 -87.5533 91° East 262 302 8,800  Level Chicago Center
Fri 03:13:00 PM 41.9785 -87.0065 85° East  Level Estimated
Fri 03:13:33 PM 42.0897 -87.4481 84° East 282 325 10,300  Level Chicago Center
Fri 03:14:00 PM 42.0085 -86.8654 74° East  Level FlightAware Approximate
Fri 03:14:35 PM 42.0969 -87.3314 85° East 306 352 11,300  Level Chicago Center
Fri 03:15:37 PM 42.1072 -87.1744 85° East 342 394 12,700 1,355 Climbing Chicago Center
Fri 03:16:39 PM 42.1144 -87.0417 86° East 354 407 14,100 1,306 Climbing Chicago Center
Fri 03:17:41 PM 42.1194 -86.9069 87° East 359 413 15,400 1,306 Climbing Chicago Center
Fri 03:18:43 PM 42.1244 -86.7694 87° East 366 421 16,800 1,258 Climbing Chicago Center
Fri 03:19:45 PM 42.1275 -86.6294 88° East 370 426 18,000 1,258 Climbing Chicago Center
Fri 03:20:47 PM 42.1325 -86.4917 87° East 370 426 19,400 1,452 Climbing Chicago Center
Fri 03:21:49 PM 42.1383 -86.3250 87° East 372 428 21,000 1,306 Climbing Chicago Center
Fri 03:22:51 PM 42.1414 -86.1839 88° East 375 432 22,100 1,016 Climbing Chicago Center
Fri 03:23:53 PM 42.1431 -86.0361 89° East 391 450 23,100 919 Climbing Chicago Center
Fri 03:24:55 PM 42.1422 -85.8972 90° East 401 461 24,000 1,008 Climbing Chicago Center
Fri 03:25:58 PM 42.1411 -85.7142 90° East 409 471 25,200 1,056 Climbing Chicago Center
Fri 03:27:00 PM 42.1389 -85.5597 91° East 414 476 26,200 919 Climbing Chicago Center
Fri 03:28:02 PM 42.1372 -85.4042 91° East 417 480 27,100 919 Climbing Chicago Center
Fri 03:29:04 PM 42.1367 -85.2497 90° East 417 480 28,100 968 Climbing Chicago Center
Fri 03:30:06 PM 42.1344 -85.0925 91° East 421 484 29,100 1,016 Climbing Chicago Center
Fri 03:31:08 PM 42.1328 -84.9092 91° East 411 473 30,200 1,016 Climbing Chicago Center
Fri 03:32:10 PM 42.1314 -84.7547 91° East 413 475 31,200 968 Climbing Chicago Center
Fri 03:33:12 PM 42.1303 -84.5978 90° East 418 481 32,200 919 Climbing Chicago Center
Fri 03:34:14 PM 42.1289 -84.4408 91° East 420 483 33,100 928 Climbing Chicago Center
Fri 03:34:49 PM 42.1294 -84.3492 90° East 421 484 33,700 568 Climbing Cleveland Center
Fri 03:35:49 PM 42.1208 -84.1694 94° East 427 491 34,000 150 Climbing Cleveland Center
Fri 03:36:49 PM 42.1111 -84.0008 94° East 440 506 34,000  Level Cleveland Center
Fri 03:37:49 PM 42.0975 -83.8239 96° East 453 521 34,000  Level Cleveland Center
Fri 03:38:49 PM 42.0858 -83.6497 95° East 464 534 34,000 100 Level Cleveland Center
Fri 03:39:49 PM 42.0756 -83.4758 94° East 470 541 34,200 500 Climbing Cleveland Center
Fri 03:40:49 PM 42.0633 -83.3019 95° East 462 532 35,000 400 Climbing Cleveland Center
Fri 03:41:49 PM 42.0503 -83.1447 96° East 462 532 35,000  Level Cleveland Center
Fri 03:42:49 PM 42.0414 -82.9736 94° East 462 532 35,000  Level Cleveland Center
Fri 03:43:49 PM 42.0283 -82.7972 96° East 467 537 35,000  Level Cleveland Center
Fri 03:44:49 PM 42.0147 -82.6206 96° East 467 537 35,000  Level Cleveland Center
Fri 03:45:49 PM 42.0011 -82.4497 96° East 467 537 35,000  Level Cleveland Center
Fri 03:46:49 PM 41.9850 -82.2758 97° East 467 537 35,000  Level Cleveland Center
Fri 03:47:49 PM 41.9750 -82.1025 94° East 467 537 35,000  Level Cleveland Center
Fri 03:48:49 PM 41.9586 -81.9094 96° East 467 537 35,000  Level Cleveland Center
Fri 03:49:49 PM 41.9436 -81.7389 97° East 467 537 35,000  Level Cleveland Center
Fri 03:50:49 PM 41.9286 -81.5628 96° East 467 537 35,000  Level Cleveland Center
Fri 03:51:49 PM 41.9156 -81.3839 96° East 467 537 35,000  Level Cleveland Center
Fri 03:52:49 PM 41.8978 -81.2053 98° East 472 543 35,000  Level Cleveland Center
Fri 03:53:49 PM 41.8819 -81.0267 97° East 486 559 35,000  Level Cleveland Center
Fri 03:54:49 PM 41.8678 -80.8647 97° East 486 559 35,000  Level Cleveland Center
Fri 03:55:49 PM 41.8494 -80.6864 98° East 486 559 35,000  Level Cleveland Center
Fri 03:56:49 PM 41.8350 -80.5053 96° East 481 554 35,000  Level Cleveland Center
Fri 03:57:49 PM 41.8181 -80.3297 97° East 481 554 35,000  Level Cleveland Center
Fri 03:58:49 PM 41.8008 -80.1542 97° East 482 555 35,000  Level Cleveland Center
Fri 03:59:49 PM 41.7769 -79.9594 99° East 482 555 35,000  Level Cleveland Center
Fri 04:00:49 PM 41.7528 -79.7789 100° East 482 555 35,000 -100 Level Cleveland Center
Fri 04:01:49 PM 41.7328 -79.6036 99° East 484 557 34,800 -550 Descending Cleveland Center
Fri 04:02:49 PM 41.7103 -79.4289 100° East 484 557 33,900 -900 Descending Cleveland Center
Fri 04:03:49 PM 41.6897 -79.2597 99° East 472 543 33,000 -950 Descending Cleveland Center
Fri 04:04:49 PM 41.6667 -79.0906 100° East 466 536 32,000 -1,150 Descending Cleveland Center
Fri 04:05:49 PM 41.6436 -78.9244 100° East 466 536 30,700 -1,650 Descending Cleveland Center
Fri 04:06:49 PM 41.6225 -78.7583 100° East 466 536 28,700 -1,785 Descending Cleveland Center
Fri 04:08:27 PM 41.5903 -78.5072 100° East 455 524 26,000 -1,595 Descending New York Center
Fri 04:09:27 PM 41.5692 -78.3494 100° East 444 511 24,500 -1,450 Descending New York Center
Fri 04:10:27 PM 41.5458 -78.1914 101° East 439 505 23,100 -750 Descending New York Center
Fri 04:11:27 PM 41.5189 -78.0194 102° East 440 506 23,000 -50 Descending New York Center
Fri 04:12:27 PM 41.5036 -77.8597 97° East 434 499 23,000  Level New York Center
Fri 04:13:27 PM 41.4947 -77.6925 94° East 439 505 23,000 -100 Level New York Center
Fri 04:14:27 PM 41.4811 -77.5278 96° East 439 505 22,800 -900 Descending New York Center
Fri 04:15:27 PM 41.4675 -77.3631 96° East 450 518 21,200 -1,600 Descending New York Center
Fri 04:16:27 PM 41.4383 -77.2106 104° East 436 502 19,600 -1,650 Descending New York Center
Fri 04:17:27 PM 41.3942 -77.0653 112° Southeast 424 488 17,900 -1,250 Descending New York Center
Fri 04:18:27 PM 41.3494 -76.9258 113° Southeast 416 479 17,100 -550 Descending New York Center
Fri 04:19:27 PM 41.3047 -76.7808 112° Southeast 416 479 16,800 -1,100 Descending New York Center
Fri 04:20:27 PM 41.3050 -76.6508 90° East 388 447 14,900 -2,100 Descending New York Center
Fri 04:21:27 PM 41.3097 -76.5133 87° East 362 417 12,600 -2,100 Descending New York Center
Fri 04:22:27 PM 41.3131 -76.3975 88° East 317 365 10,700 -1,650 Descending New York Center
Fri 04:23:27 PM 41.3181 -76.2931 86° East 290 334 9,300 -1,550 Descending New York Center
Fri 04:24:27 PM 41.3219 -76.2047 87° East 274 315 7,600 -1,800 Descending New York Center
Fri 04:25:27 PM 41.2833 -76.1383 128° Southeast 239 275 5,700 -1,700 Descending New York Center
Fri 04:26:27 PM 41.2144 -76.0969 156° South 232 267 4,200 -850 Descending New York Center
Fri 04:27:27 PM 41.1556 -76.0647 158° South 232 267 4,000 -99 Descending New York Center
Fri 04:28:28 PM 41.1356 -75.9997 112° Southeast 192 221 4,000  Level New York Center
Fri 04:29:27 PM 41.1450 -75.9261 80° East 196 226 4,000  Level New York Center
Fri 04:30:27 PM 41.1831 -75.8656 50° Northeast 189 217 4,000 -250 Level New York Center
Fri 04:31:27 PM 41.2264 -75.8247 35° Northeast 184 212 3,500 -650 Descending New York Center
Fri 04:32:27 PM 41.2567 -75.7967 35° Northeast 173 199 2,700 -800 Descending New York Center
Fri 04:33:27 PM 41.2892 -75.7686 33° Northeast 148 170 1,900 -650 Descending New York Center
Fri 04:34:27 PM 41.3258 -75.7383 32° Northeast 140 161 1,400 3,550 Descending New York Center
Fri 04:35:27 PM 41.3583 -75.7131 30° Northeast 140 161 9,000 7,600 Climbing New York Center
Fri 04:37:00 PM 41.3333 -75.7167 217° Southwest  Level FlightAware Approximate
Fri 04:44:00 PM 41.3385 -75.7234 217° Southwest  Level Estimated
Fri 04:45:00 PM 41.3333 -75.7167 217° Southwest  Level FlightAware Approximate
Fri 04:46:00 PM 41.3385 -75.7234 217° Southwest  Level Estimated
Fri 04:47:00 PM 41.3333 -75.7167 217° Southwest  Level FlightAware Approximate
Fri 04:48:00 PM 41.3385 -75.7234 217° Southwest  Level Estimated
Fri 04:49:00 PM 41.3333 -75.7167 217° Southwest  Level FlightAware Approximate

Login

Don't have an account? Register now (free) for customized features, flight alerts, and more!